Aviation Digital Data Service (ADDS)

Output produced by METARs form (1512 UTC 20 March 2019)
found at http://www.aviationweather.gov/metar/data/
 
Forecast for: EBLG (BIERSET/LIEGE (C, BE)
Text: TAF EBLG 201100Z 2012/2118 25006KT 9999 SCT025
Forecast period: 1200 UTC 20 March 2019 to 1800 UTC 21 March 2019
Forecast type: FROM: standard forecast or significant change
Winds: from the WSW (250 degrees) at 7 MPH (6 knots; 3.1 m/s)
Visibility: 6 or more miles 10+ km)
Ceiling: at least 12,000 feet AGL
Clouds: scattered clouds at 2500 feet AGL
Weather: no significant weather forecast for this period